createdAt,value
2019-02-19T00:03:54.993Z,77.12
2019-02-19T00:09:00.280Z,77.41
2019-02-19T00:14:05.498Z,77.54
2019-02-19T00:19:10.832Z,77.29
2019-02-19T00:24:16.101Z,76.99
2019-02-19T00:29:21.397Z,76.97
2019-02-19T00:34:26.481Z,77.07
2019-02-19T00:39:31.572Z,76.84
2019-02-19T00:44:36.913Z,77.24
2019-02-19T00:49:42.475Z,77.35
2019-02-19T00:54:47.944Z,77.08
2019-02-19T00:59:53.588Z,77.38
2019-02-19T01:04:59.986Z,77.14
2019-02-19T01:10:07.097Z,76.81
2019-02-19T01:15:12.449Z,76.99
2019-02-19T01:20:18.010Z,77.13
2019-02-19T01:25:23.213Z,76.85
2019-02-19T01:30:28.569Z,76.68
2019-02-19T01:35:33.935Z,77.07
2019-02-19T01:40:39.140Z,76.80
2019-02-19T01:45:45.239Z,76.73
2019-02-19T01:50:50.391Z,76.63
2019-02-19T01:55:55.699Z,76.99
2019-02-19T02:01:01.199Z,76.87
2019-02-19T02:06:06.548Z,76.70
2019-02-19T02:11:11.704Z,76.66
2019-02-19T02:16:17.053Z,76.72
2019-02-19T02:21:22.322Z,76.79
2019-02-19T02:26:27.570Z,76.24
2019-02-19T02:31:33.346Z,76.43
2019-02-19T02:36:38.804Z,76.62
2019-02-19T02:41:44.207Z,76.84
2019-02-19T02:46:49.541Z,76.77
2019-02-19T02:51:54.775Z,76.87
2019-02-19T02:57:00.247Z,76.54
2019-02-19T03:02:05.601Z,76.98
2019-02-19T03:07:12.526Z,77.13
2019-02-19T03:12:17.892Z,77.18
2019-02-19T03:17:23.115Z,76.95
2019-02-19T03:22:29.609Z,77.07
2019-02-19T03:27:35.048Z,77.41
2019-02-19T03:32:40.431Z,77.36
2019-02-19T03:37:45.688Z,77.44
2019-02-19T03:42:51.048Z,77.44
2019-02-19T03:47:56.480Z,77.26
2019-02-19T03:53:01.945Z,77.08
2019-02-19T03:58:07.612Z,77.01
2019-02-19T04:03:12.877Z,76.65
2019-02-19T04:08:18.228Z,77.03
2019-02-19T04:13:23.726Z,76.90
2019-02-19T04:18:29.044Z,76.83
2019-02-19T04:23:34.615Z,76.88
2019-02-19T04:28:40.288Z,76.94
2019-02-19T04:33:45.638Z,77.03
2019-02-19T04:38:50.795Z,77.01
2019-02-19T04:43:56.060Z,76.88
2019-02-19T04:49:01.581Z,76.87
2019-02-19T04:54:06.927Z,76.92
2019-02-19T04:59:12.285Z,76.70
2019-02-19T05:04:17.481Z,76.82
2019-02-19T05:09:22.828Z,76.71
2019-02-19T05:14:28.095Z,76.68
2019-02-19T05:19:33.875Z,76.52
2019-02-19T05:24:39.330Z,76.57
2019-02-19T05:29:44.583Z,76.52
2019-02-19T05:34:50.050Z,76.28
2019-02-19T05:39:55.414Z,75.89
2019-02-19T05:45:00.818Z,76.20
2019-02-19T05:50:08.601Z,76.11
2019-02-19T05:55:13.942Z,76.04
2019-02-19T06:00:20.428Z,76.00
2019-02-19T06:05:25.774Z,76.00
2019-02-19T06:10:31.027Z,76.21
2019-02-19T06:15:36.396Z,76.02
2019-02-19T06:20:41.855Z,75.66
2019-02-19T06:25:48.027Z,76.06
2019-02-19T06:30:53.204Z,76.42
2019-02-19T06:35:58.545Z,76.28
2019-02-19T06:41:04.531Z,76.43
2019-02-19T06:46:09.993Z,76.73
2019-02-19T06:51:15.373Z,76.46
2019-02-19T06:56:20.724Z,76.27
2019-02-19T07:01:27.910Z,76.14
2019-02-19T07:06:33.007Z,75.56
2019-02-19T07:11:38.307Z,74.61
2019-02-19T07:16:43.668Z,73.86
2019-02-19T07:21:48.819Z,73.89
2019-02-19T07:26:54.587Z,73.90
2019-02-19T07:31:59.952Z,73.63
2019-02-19T07:37:05.305Z,73.62
2019-02-19T07:42:10.397Z,73.41
2019-02-19T07:47:24.262Z,73.17
2019-02-19T07:52:22.517Z,73.36
2019-02-19T07:57:27.963Z,73.96
2019-02-19T08:02:33.437Z,73.34
2019-02-19T08:07:39.001Z,73.24
2019-02-19T08:12:44.366Z,71.29
2019-02-19T08:17:49.725Z,69.18
2019-02-19T08:22:54.900Z,68.89
2019-02-19T08:28:00.241Z,69.04
2019-02-19T08:33:05.633Z,68.05
2019-02-19T08:38:10.762Z,67.22
2019-02-19T08:43:16.779Z,64.80
2019-02-19T08:48:21.972Z,62.75
2019-02-19T08:53:27.321Z,60.02
2019-02-19T08:58:32.584Z,60.08
2019-02-19T09:03:37.841Z,59.72
2019-02-19T09:08:43.441Z,59.91
2019-02-19T09:13:48.824Z,59.96
2019-02-19T09:18:54.439Z,60.57
2019-02-19T09:23:59.683Z,59.33
2019-02-19T09:29:05.057Z,59.01
2019-02-19T09:34:10.541Z,57.72
2019-02-19T09:39:16.173Z,57.12
2019-02-19T09:44:21.631Z,56.99
2019-02-19T09:49:26.989Z,56.37
2019-02-19T09:54:32.444Z,55.94
2019-02-19T09:59:37.708Z,55.53
2019-02-19T10:04:43.276Z,54.65
2019-02-19T10:09:48.641Z,54.38
2019-02-19T10:14:54.092Z,54.35
2019-02-19T10:19:59.740Z,53.87
2019-02-19T10:25:11.907Z,54.02
2019-02-19T10:30:20.862Z,53.68
2019-02-19T10:35:26.380Z,53.21
2019-02-19T10:40:31.941Z,53.12
2019-02-19T10:45:37.416Z,52.97
2019-02-19T10:50:42.558Z,53.17
2019-02-19T10:55:47.640Z,53.10
2019-02-19T11:00:53.071Z,52.76
2019-02-19T11:05:58.631Z,52.57
2019-02-19T11:11:03.887Z,52.71
2019-02-19T11:16:09.013Z,52.58
2019-02-19T11:21:19.488Z,52.57
2019-02-19T11:26:21.417Z,52.21
2019-02-19T11:31:26.762Z,51.84
2019-02-19T11:36:32.123Z,51.71
2019-02-19T11:41:37.171Z,51.78
2019-02-19T11:46:42.441Z,51.49
2019-02-19T11:51:47.687Z,51.56
2019-02-19T11:56:53.040Z,52.29
2019-02-19T12:01:58.994Z,52.47
2019-02-19T12:07:04.375Z,52.52
2019-02-19T12:12:09.626Z,52.42
2019-02-19T12:17:14.894Z,52.98
2019-02-19T12:22:20.138Z,53.46
2019-02-19T12:27:25.393Z,53.66
2019-02-19T12:32:30.663Z,53.75
2019-02-19T12:37:36.041Z,53.98
2019-02-19T12:42:41.367Z,52.85
2019-02-19T12:47:46.652Z,52.80
2019-02-19T12:52:51.987Z,52.65
2019-02-19T12:57:57.763Z,53.35
2019-02-19T13:03:03.434Z,57.30
2019-02-19T13:08:08.685Z,59.54
2019-02-19T13:13:14.077Z,61.07
2019-02-19T13:18:19.294Z,61.66
2019-02-19T13:23:24.581Z,61.77
2019-02-19T13:28:30.838Z,62.36
2019-02-19T13:33:36.100Z,64.40
2019-02-19T13:38:41.453Z,64.40
2019-02-19T13:43:46.700Z,64.98
2019-02-19T13:48:52.276Z,65.04
2019-02-19T13:53:59.360Z,65.04
2019-02-19T13:59:04.827Z,63.88
2019-02-19T14:04:09.980Z,63.88
2019-02-19T14:09:15.455Z,63.98
2019-02-19T14:14:25.524Z,64.25
2019-02-19T14:19:47.668Z,64.26
2019-02-19T14:25:03.262Z,64.43
2019-02-19T14:30:27.859Z,64.55
2019-02-19T14:35:40.502Z,64.53
2019-02-19T14:41:03.472Z,64.50
2019-02-19T14:46:10.473Z,64.64
2019-02-19T14:51:26.481Z,64.65
2019-02-19T14:56:42.495Z,64.58
2019-02-19T15:02:05.914Z,64.62
2019-02-19T15:07:15.271Z,64.81
2019-02-19T15:12:40.547Z,65.24
2019-02-19T15:17:59.624Z,65.17
2019-02-19T15:23:24.157Z,65.35
2019-02-19T15:28:43.384Z,65.31
2019-02-19T15:34:07.106Z,65.48
2019-02-19T15:39:32.337Z,65.46
2019-02-19T15:44:48.134Z,65.12
2019-02-19T15:49:54.939Z,65.20
2019-02-19T15:55:18.318Z,65.21
2019-02-19T16:00:25.213Z,65.51
2019-02-19T16:05:34.871Z,65.53
2019-02-19T16:10:44.735Z,65.50
2019-02-19T16:16:09.761Z,65.53
2019-02-19T16:21:22.585Z,65.58
2019-02-19T16:26:35.430Z,65.70
2019-02-19T16:31:42.421Z,65.71
2019-02-19T16:36:49.510Z,65.62
2019-02-19T16:41:58.834Z,65.51
2019-02-19T16:47:08.628Z,65.25
2019-02-19T16:52:30.669Z,65.31
2019-02-19T16:57:46.583Z,65.26
2019-02-19T17:02:53.709Z,65.17
2019-02-19T17:08:00.877Z,65.16
2019-02-19T17:13:23.146Z,65.31
2019-02-19T17:18:45.212Z,65.48
2019-02-19T17:23:52.087Z,65.62
2019-02-19T17:29:05.131Z,65.61
2019-02-19T17:34:28.379Z,65.37
2019-02-19T17:39:39.699Z,65.39
2019-02-19T17:44:52.648Z,65.28
2019-02-19T17:50:05.265Z,65.02
2019-02-19T17:55:12.184Z,64.95
2019-02-19T18:00:19.278Z,64.73
2019-02-19T18:05:26.385Z,64.91
2019-02-19T18:10:39.398Z,64.98
2019-02-19T18:15:46.270Z,65.11
2019-02-19T18:20:51.323Z,65.12
2019-02-19T18:25:56.596Z,65.15
2019-02-19T18:31:01.917Z,65.33
2019-02-19T18:36:07.207Z,65.39
2019-02-19T18:41:12.299Z,67.57
2019-02-19T18:46:17.971Z,68.67
2019-02-19T18:51:23.201Z,69.27
2019-02-19T18:56:28.649Z,69.74
2019-02-19T19:01:34.017Z,70.26
2019-02-19T19:06:39.166Z,70.78
2019-02-19T19:11:44.419Z,70.92
2019-02-19T19:16:49.673Z,70.55
2019-02-19T19:21:55.237Z,70.29
2019-02-19T19:27:00.700Z,69.51
2019-02-19T19:32:05.924Z,69.59
2019-02-19T19:37:11.219Z,69.84
2019-02-19T19:42:16.561Z,70.03
2019-02-19T19:47:22.138Z,70.11
2019-02-19T19:52:27.492Z,70.21
2019-02-19T19:57:32.854Z,70.20
2019-02-19T20:02:39.447Z,70.48
2019-02-19T20:07:44.731Z,71.88
2019-02-19T20:12:49.950Z,72.70
2019-02-19T20:17:55.322Z,72.99
2019-02-19T20:23:00.577Z,72.32
2019-02-19T20:28:06.124Z,71.96
2019-02-19T20:33:11.538Z,71.20
2019-02-19T20:38:16.601Z,71.17
2019-02-19T20:43:21.909Z,71.16
2019-02-19T20:48:29.606Z,71.29
2019-02-19T20:53:34.975Z,71.22
2019-02-19T20:58:40.179Z,72.25
2019-02-19T21:03:45.503Z,72.61
2019-02-19T21:08:50.937Z,73.73
2019-02-19T21:13:56.182Z,74.09
2019-02-19T21:19:03.087Z,74.66
2019-02-19T21:24:08.536Z,74.91
2019-02-19T21:29:13.924Z,75.20
2019-02-19T21:34:19.576Z,75.56
2019-02-19T21:39:24.701Z,74.94
2019-02-19T21:44:30.414Z,75.83
2019-02-19T21:49:35.782Z,76.45
2019-02-19T21:54:41.214Z,76.14
2019-02-19T21:59:46.784Z,76.00
2019-02-19T22:04:52.499Z,75.63
2019-02-19T22:09:57.810Z,74.87
2019-02-19T22:15:03.374Z,74.90
2019-02-19T22:20:38.734Z,74.46
2019-02-19T22:25:43.964Z,74.35
2019-02-19T22:30:49.250Z,73.27
2019-02-19T22:35:54.463Z,73.46
2019-02-19T22:40:59.976Z,73.09
2019-02-19T22:46:05.232Z,73.18
2019-02-19T22:51:10.500Z,72.41
2019-02-19T22:56:17.679Z,71.65
2019-02-19T23:01:34.000Z,72.03
2019-02-19T23:06:39.361Z,71.45
2019-02-19T23:11:44.761Z,71.04
2019-02-19T23:16:50.079Z,71.14
2019-02-19T23:21:55.459Z,70.92
2019-02-19T23:27:02.113Z,70.81
2019-02-19T23:32:07.683Z,70.40
2019-02-19T23:37:13.252Z,70.17
2019-02-19T23:42:18.616Z,69.90
2019-02-19T23:47:23.969Z,69.71
2019-02-19T23:52:30.605Z,69.33
2019-02-19T23:57:36.015Z,69.06
